Startpagina
METAR-TAF:

METAR-TAF

Vliegvelden :

Albert, Frankrijk

breedte: 49-58-21N, lengte: 002-41-29E, hoogte: 111 m

Actueel weer

Dit bericht is 18 minuten geleden gemaakt, om 04:00 UTC
Wind 6 kt uit het zuidzuidoosten
Temperatuur 5°C
Vochtigheid 100%
Druk 1010 hPa
Zicht: 6000 m

METAR: LFAQ 260400Z AUTO 16006KT 6000 NSC 05/05 Q1010

Tijdstip: 06:18 (04:18 UTC)

Verwachting

Dit bericht is 12 uur en het 57 minuten geleden gemaakt, om 15:21 UTC
Verwachting geldig van 25 om 15 UTC tot 25 om 24 UTC
Wind 12 kt uit het zuiden
Zicht 10 km of meer
Verspreide wolken op 2000 ft
Gebroken wolken op 4700 ft
Tijdelijke
van 25 om 15 UTC tot 25 om 19 UTC
Zicht: 4000 m
Gebroken wolken op 4000 ft, Cumulonimbus.
regenbuien
Kans 40% :
Tijdelijke
van 25 om 15 UTC tot 25 om 19 UTC
Wind 20 kt uit het westzuidwesten met uitschieters tot 35 kt
onweer, regen

TAF: LFAQ 251521Z 2515/2524 18012KT 9999 SCT020 BKN047 TEMPO 2515/2519 4000 SHRA BKN040CB PROB40 TEMPO 2515/2519 24020G35KT TSRA

Waarnemingen en weersverwachtingen van meer dan 4000 vliegvelden (METAR en TAF).

De beschikbare stations zijn de gele en rode punten op de kaart.

Ga met uw muis naar het station om de naam te zien.

Klik dan om waarnemingen en weersverwachtingen te zien.

kaart wijzigen: klik op de groene knoppen met een zwart kruis om in te zoomen, op de groene knop met een streepje om uit te zoomen of op de groene pijlen voor aangrenzende kaarten.


METAR-TAF: